createdAt,value
2022-10-20T00:00:54.611Z,13.02
2022-10-20T00:03:22.186Z,12.20
2022-10-20T00:05:49.529Z,12.38
2022-10-20T00:08:17.262Z,13.40
2022-10-20T00:13:26.156Z,13.45
2022-10-20T00:15:54.696Z,13.05
2022-10-20T00:18:23.506Z,13.25
2022-10-20T00:20:50.983Z,13.55
2022-10-20T00:23:19.028Z,12.57
2022-10-20T00:25:46.699Z,13.55
2022-10-20T00:28:14.220Z,14.57
2022-10-20T00:30:42.269Z,14.77
2022-10-20T00:33:09.731Z,13.35
2022-10-20T00:35:39.426Z,13.60
2022-10-20T00:38:07.076Z,13.90
2022-10-20T00:40:34.480Z,13.82
2022-10-20T00:43:02.159Z,13.32
2022-10-20T00:45:29.568Z,15.20
2022-10-20T00:47:58.861Z,15.35
2022-10-20T00:50:26.295Z,14.55
2022-10-20T00:52:54.571Z,14.27
2022-10-20T00:55:25.869Z,14.52
2022-10-20T00:57:54.776Z,13.73
2022-10-20T01:00:22.732Z,14.65
2022-10-20T01:02:51.553Z,15.18
2022-10-20T01:05:19.293Z,14.43
2022-10-20T01:07:47.040Z,14.40
2022-10-20T01:10:15.275Z,14.40
2022-10-20T01:12:51.133Z,14.82
2022-10-20T01:15:21.765Z,13.98
2022-10-20T01:18:07.969Z,15.13
2022-10-20T01:21:05.029Z,15.90
2022-10-20T01:23:32.657Z,14.95
2022-10-20T01:26:18.887Z,16.33
2022-10-20T01:28:49.389Z,14.02
2022-10-20T01:31:25.160Z,14.98
2022-10-20T01:33:58.342Z,15.13
2022-10-20T01:36:32.050Z,15.00
2022-10-20T01:38:59.485Z,15.68
2022-10-20T01:41:40.601Z,15.15
2022-10-20T01:44:10.900Z,16.48
2022-10-20T01:46:40.302Z,15.57
2022-10-20T01:49:07.938Z,15.25
2022-10-20T01:51:35.490Z,14.50
2022-10-20T01:54:02.915Z,14.07
2022-10-20T01:56:40.102Z,15.50
2022-10-20T01:59:17.481Z,15.82
2022-10-20T02:01:59.960Z,15.50
2022-10-20T02:04:50.564Z,15.52
2022-10-20T02:07:23.011Z,15.60
2022-10-20T02:09:52.454Z,16.27
2022-10-20T02:12:28.912Z,16.85
2022-10-20T02:14:56.605Z,15.45
2022-10-20T02:17:24.307Z,15.70
2022-10-20T02:19:53.252Z,14.45
2022-10-20T02:22:21.801Z,15.10
2022-10-20T02:24:49.657Z,14.40
2022-10-20T02:27:19.214Z,15.32
2022-10-20T02:29:54.465Z,15.00
2022-10-20T02:32:22.402Z,15.25
2022-10-20T02:34:49.760Z,14.88
2022-10-20T02:39:44.914Z,14.50
2022-10-20T02:42:12.916Z,14.48
2022-10-20T02:44:40.506Z,14.50
2022-10-20T02:47:08.049Z,14.18
2022-10-20T02:49:35.517Z,14.05
2022-10-20T02:52:02.949Z,14.23
2022-10-20T02:54:30.319Z,14.23
2022-10-20T02:56:57.877Z,14.10
2022-10-20T02:59:25.214Z,13.20
2022-10-20T03:01:52.868Z,13.20
2022-10-20T03:04:20.546Z,13.98
2022-10-20T03:06:47.924Z,13.32
2022-10-20T03:09:15.561Z,13.85
2022-10-20T03:11:43.315Z,13.93
2022-10-20T03:14:11.814Z,13.68
2022-10-20T03:16:40.058Z,12.23
2022-10-20T03:19:11.348Z,12.77
2022-10-20T03:21:39.131Z,12.88
2022-10-20T03:24:06.626Z,12.43
2022-10-20T03:26:34.492Z,11.25
2022-10-20T03:29:02.130Z,11.93
2022-10-20T03:31:29.590Z,12.65
2022-10-20T03:33:56.967Z,11.98
2022-10-20T03:36:24.601Z,11.68
2022-10-20T03:38:53.471Z,12.63
2022-10-20T03:41:21.105Z,11.00
2022-10-20T03:43:48.490Z,11.15
2022-10-20T03:46:16.111Z,12.23
2022-10-20T03:48:43.924Z,11.00
2022-10-20T03:51:12.849Z,11.27
2022-10-20T03:53:40.546Z,11.20
2022-10-20T03:56:08.618Z,10.90
2022-10-20T03:58:36.013Z,10.75
2022-10-20T04:01:03.640Z,10.52
2022-10-20T04:03:31.107Z,11.52
2022-10-20T04:05:58.827Z,11.05
2022-10-20T04:08:26.355Z,10.55
2022-10-20T04:10:53.771Z,11.63
2022-10-20T04:13:21.485Z,11.00
2022-10-20T04:15:48.824Z,10.43
2022-10-20T04:18:16.161Z,10.18
2022-10-20T04:20:44.727Z,10.95
2022-10-20T04:23:12.663Z,10.98
2022-10-20T04:25:41.068Z,10.95
2022-10-20T04:28:09.264Z,10.43
2022-10-20T04:30:36.988Z,10.68
2022-10-20T04:33:04.790Z,9.68
2022-10-20T04:35:32.278Z,10.70
2022-10-20T04:37:59.645Z,11.75
2022-10-20T04:40:27.286Z,10.55
2022-10-20T04:42:55.004Z,11.52
2022-10-20T04:45:22.734Z,10.70
2022-10-20T04:47:50.456Z,11.32
2022-10-20T04:50:18.018Z,11.10
2022-10-20T04:52:45.417Z,11.18
2022-10-20T04:55:12.920Z,10.68
2022-10-20T04:57:40.590Z,10.07
2022-10-20T05:00:08.484Z,10.50
2022-10-20T05:02:36.205Z,10.38
2022-10-20T05:05:05.211Z,11.43
2022-10-20T05:07:32.623Z,11.18
2022-10-20T05:09:59.945Z,10.98
2022-10-20T05:12:28.927Z,10.98
2022-10-20T05:14:56.292Z,10.23
2022-10-20T05:17:23.677Z,10.75
2022-10-20T05:19:52.797Z,9.18
2022-10-20T05:22:20.158Z,10.18
2022-10-20T05:24:47.674Z,9.70
2022-10-20T05:27:15.169Z,10.82
2022-10-20T05:29:42.849Z,10.38
2022-10-20T05:32:12.053Z,9.65
2022-10-20T05:34:39.528Z,9.90
2022-10-20T05:37:07.278Z,9.10
2022-10-20T05:39:34.969Z,10.98
2022-10-20T05:42:02.378Z,10.15
2022-10-20T05:44:29.877Z,9.85
2022-10-20T05:46:57.383Z,10.20
2022-10-20T05:49:25.273Z,10.75
2022-10-20T05:51:52.597Z,10.57
2022-10-20T05:54:20.356Z,10.23
2022-10-20T05:56:48.109Z,10.00
2022-10-20T05:59:15.719Z,9.80
2022-10-20T06:01:49.507Z,8.80
2022-10-20T06:04:18.717Z,9.60
2022-10-20T06:06:46.231Z,9.32
2022-10-20T06:09:13.902Z,9.25
2022-10-20T06:11:41.806Z,9.80
2022-10-20T06:14:10.174Z,9.93
2022-10-20T06:16:37.869Z,8.75
2022-10-20T06:19:06.938Z,9.18
2022-10-20T06:21:35.199Z,9.63
2022-10-20T06:24:04.958Z,9.88
2022-10-20T06:26:34.253Z,8.82
2022-10-20T06:29:04.670Z,9.32
2022-10-20T06:31:34.054Z,9.32
2022-10-20T06:34:02.005Z,9.55
2022-10-20T06:36:29.672Z,9.52
2022-10-20T06:38:58.116Z,8.93
2022-10-20T06:41:26.659Z,8.52
2022-10-20T06:44:00.762Z,9.20
2022-10-20T06:46:29.630Z,8.65
2022-10-20T06:48:59.107Z,7.90
2022-10-20T06:51:26.839Z,8.75
2022-10-20T06:53:54.587Z,8.23
2022-10-20T06:56:23.817Z,8.48
2022-10-20T06:58:52.146Z,7.38
2022-10-20T07:01:21.222Z,8.00
2022-10-20T07:03:49.224Z,8.07
2022-10-20T07:06:28.538Z,7.82
2022-10-20T07:08:59.761Z,7.72
2022-10-20T07:11:30.162Z,7.28
2022-10-20T07:14:02.457Z,7.68
2022-10-20T07:16:31.157Z,7.40
2022-10-20T07:18:59.123Z,6.90
2022-10-20T07:21:32.358Z,6.57
2022-10-20T07:24:04.083Z,6.55
2022-10-20T07:26:33.263Z,6.40
2022-10-20T07:29:01.754Z,5.90
2022-10-20T07:31:29.412Z,6.20
2022-10-20T07:34:07.082Z,6.43
2022-10-20T07:36:43.166Z,6.20
2022-10-20T07:39:11.784Z,6.53
2022-10-20T07:41:39.897Z,7.20
2022-10-20T07:44:08.403Z,6.65
2022-10-20T07:46:36.654Z,6.70
2022-10-20T07:51:53.274Z,6.13
2022-10-20T07:54:20.907Z,6.40
2022-10-20T07:56:49.543Z,6.38
2022-10-20T07:59:16.960Z,6.60
2022-10-20T08:01:44.561Z,5.80
2022-10-20T08:04:12.334Z,6.13
2022-10-20T08:06:39.813Z,5.93
2022-10-20T08:09:07.763Z,6.78
2022-10-20T08:11:35.765Z,6.82
2022-10-20T08:14:03.204Z,6.22
2022-10-20T08:16:31.290Z,5.72
2022-10-20T08:19:09.559Z,6.25
2022-10-20T08:21:36.939Z,5.88
2022-10-20T08:24:04.623Z,6.05
2022-10-20T08:26:31.966Z,6.40
2022-10-20T08:28:59.683Z,5.80
2022-10-20T08:31:27.048Z,5.75
2022-10-20T08:33:54.559Z,6.30
2022-10-20T08:36:22.339Z,6.28
2022-10-20T08:38:50.027Z,5.53
2022-10-20T08:41:20.841Z,6.07
2022-10-20T08:43:49.964Z,6.30
2022-10-20T08:48:47.469Z,6.07
2022-10-20T08:51:22.565Z,6.00
2022-10-20T08:53:51.966Z,5.82
2022-10-20T08:56:21.240Z,6.20
2022-10-20T08:58:48.617Z,6.57
2022-10-20T09:01:21.142Z,5.85
2022-10-20T09:03:59.720Z,6.10
2022-10-20T09:06:27.173Z,6.68
2022-10-20T09:08:56.107Z,6.18
2022-10-20T09:11:30.035Z,5.85
2022-10-20T09:13:57.421Z,5.93
2022-10-20T09:16:41.625Z,5.82
2022-10-20T09:19:19.753Z,6.05
2022-10-20T09:21:50.853Z,5.63
2022-10-20T09:24:18.512Z,6.15
2022-10-20T09:26:59.036Z,5.50
2022-10-20T09:29:37.872Z,5.38
2022-10-20T09:32:44.854Z,5.55
2022-10-20T09:35:19.282Z,5.90
2022-10-20T09:37:51.350Z,5.78
2022-10-20T09:40:19.657Z,5.88
2022-10-20T09:43:16.205Z,5.43
2022-10-20T09:46:09.856Z,5.13
2022-10-20T09:48:43.861Z,5.40
2022-10-20T09:51:14.871Z,5.65
2022-10-20T09:54:02.476Z,6.20
2022-10-20T09:56:40.486Z,5.40
2022-10-20T09:59:33.058Z,5.90
2022-10-20T10:02:02.401Z,5.57
2022-10-20T10:04:36.309Z,5.88
2022-10-20T10:07:05.285Z,6.45
2022-10-20T10:09:35.330Z,6.10
2022-10-20T10:12:13.409Z,6.03
2022-10-20T10:14:51.711Z,5.30
2022-10-20T10:17:39.430Z,5.50
2022-10-20T10:20:27.925Z,5.95
2022-10-20T10:23:08.535Z,5.28
2022-10-20T10:25:36.111Z,5.28
2022-10-20T10:28:20.747Z,5.10
2022-10-20T10:33:26.524Z,4.70
2022-10-20T10:35:53.963Z,4.82
2022-10-20T10:38:21.669Z,5.35
2022-10-20T10:41:07.795Z,5.28
2022-10-20T10:43:43.786Z,6.10
2022-10-20T10:46:13.748Z,5.32
2022-10-20T10:48:53.133Z,5.63
2022-10-20T10:51:39.373Z,5.82
2022-10-20T10:54:11.680Z,4.90
2022-10-20T10:56:48.449Z,5.28
2022-10-20T10:59:23.633Z,5.60
2022-10-20T11:01:50.985Z,5.07
2022-10-20T11:04:39.954Z,4.50
2022-10-20T11:07:14.110Z,4.93
2022-10-20T11:09:53.900Z,5.30
2022-10-20T11:12:29.442Z,5.65
2022-10-20T11:15:05.954Z,5.57
2022-10-20T11:17:39.553Z,4.72
2022-10-20T11:20:27.632Z,4.95
2022-10-20T11:23:13.480Z,5.07
2022-10-20T11:25:53.253Z,5.57
2022-10-20T11:28:32.091Z,4.53
2022-10-20T11:31:00.451Z,5.10
2022-10-20T11:33:30.144Z,4.95
2022-10-20T11:35:57.591Z,5.03
2022-10-20T11:38:31.908Z,4.82
2022-10-20T11:41:19.399Z,5.00
2022-10-20T11:44:06.961Z,5.68
2022-10-20T11:46:34.517Z,5.53
2022-10-20T11:49:04.127Z,4.88
2022-10-20T11:51:31.719Z,5.15
2022-10-20T11:54:04.976Z,5.40
2022-10-20T11:57:04.957Z,5.30
2022-10-20T11:59:38.645Z,4.85
2022-10-20T12:02:15.312Z,4.85
2022-10-20T12:04:46.033Z,4.78
2022-10-20T12:07:22.253Z,4.63
2022-10-20T12:10:08.153Z,4.55
2022-10-20T12:12:41.649Z,5.65
2022-10-20T12:15:25.719Z,4.40
2022-10-20T12:17:54.545Z,4.03
2022-10-20T12:20:21.916Z,4.75
2022-10-20T12:22:50.943Z,4.00
2022-10-20T12:25:20.999Z,4.15
2022-10-20T12:27:48.557Z,4.40
2022-10-20T12:30:19.123Z,4.32
2022-10-20T12:32:46.648Z,4.35
2022-10-20T12:35:14.264Z,4.50
2022-10-20T12:37:44.977Z,4.32
2022-10-20T12:40:14.429Z,4.20
2022-10-20T12:42:47.656Z,4.13
2022-10-20T12:45:21.660Z,4.20
2022-10-20T12:47:51.459Z,4.20
2022-10-20T12:50:24.806Z,4.82
2022-10-20T12:52:52.398Z,4.68
2022-10-20T12:55:39.534Z,4.22
2022-10-20T12:58:18.445Z,4.60
2022-10-20T13:00:52.071Z,4.38
2022-10-20T13:03:38.257Z,4.55
2022-10-20T13:06:23.909Z,4.00
2022-10-20T13:09:07.618Z,3.97
2022-10-20T13:11:38.356Z,4.15
2022-10-20T13:14:17.515Z,3.92
2022-10-20T13:16:50.694Z,3.70
2022-10-20T13:19:21.504Z,3.75
2022-10-20T13:21:49.860Z,3.88
2022-10-20T13:24:21.026Z,3.85
2022-10-20T13:26:49.042Z,3.33
2022-10-20T13:29:21.641Z,3.88
2022-10-20T13:34:57.331Z,3.88
2022-10-20T13:37:51.739Z,4.38
2022-10-20T13:40:35.700Z,3.92
2022-10-20T13:43:13.137Z,3.83
2022-10-20T13:45:50.257Z,3.85
2022-10-20T13:48:23.609Z,4.03
2022-10-20T13:50:55.460Z,4.32
2022-10-20T13:53:28.537Z,3.30
2022-10-20T13:56:01.726Z,4.10
2022-10-20T13:58:29.353Z,3.53
2022-10-20T14:01:19.850Z,3.90
2022-10-20T14:03:48.117Z,3.53
2022-10-20T14:06:38.249Z,4.03
2022-10-20T14:09:19.392Z,3.45
2022-10-20T14:12:13.105Z,3.67
2022-10-20T14:14:43.779Z,4.60
2022-10-20T14:17:18.585Z,4.32
2022-10-20T14:19:46.968Z,3.53
2022-10-20T14:22:19.042Z,3.75
2022-10-20T14:24:50.406Z,3.97
2022-10-20T14:27:29.048Z,3.05
2022-10-20T14:29:57.340Z,3.70
2022-10-20T14:32:29.311Z,3.35
2022-10-20T14:35:01.133Z,3.50
2022-10-20T14:37:49.117Z,3.50
2022-10-20T14:40:21.838Z,3.50
2022-10-20T14:42:49.487Z,3.55
2022-10-20T14:45:24.653Z,3.67
2022-10-20T14:47:52.380Z,3.50
2022-10-20T14:50:27.832Z,3.38
2022-10-20T14:52:55.635Z,3.72
2022-10-20T14:55:32.974Z,3.30
2022-10-20T14:58:00.704Z,3.05
2022-10-20T15:00:31.378Z,3.08
2022-10-20T15:03:01.731Z,4.03
2022-10-20T15:05:32.639Z,3.20
2022-10-20T15:08:07.783Z,3.10
2022-10-20T15:10:35.607Z,3.50
2022-10-20T15:13:03.431Z,3.67
2022-10-20T15:15:40.136Z,4.38
2022-10-20T15:18:12.761Z,4.93
2022-10-20T15:20:41.704Z,5.13
2022-10-20T15:23:10.646Z,6.25
2022-10-20T15:25:58.658Z,5.10
2022-10-20T15:28:37.533Z,5.97
2022-10-20T15:31:25.851Z,5.32
2022-10-20T15:33:55.796Z,6.05
2022-10-20T15:36:33.408Z,6.45
2022-10-20T15:39:01.340Z,5.40
2022-10-20T15:41:34.236Z,4.50
2022-10-20T15:44:22.609Z,5.45
2022-10-20T15:46:54.613Z,4.80
2022-10-20T15:49:22.419Z,4.90
2022-10-20T15:51:51.483Z,4.90
2022-10-20T15:54:20.444Z,3.72
2022-10-20T15:56:47.750Z,4.03
2022-10-20T15:59:15.226Z,6.72
2022-10-20T16:01:42.567Z,9.13
2022-10-20T16:04:22.521Z,8.63
2022-10-20T16:06:53.103Z,6.10
2022-10-20T16:09:24.114Z,6.55
2022-10-20T16:11:51.509Z,4.82
2022-10-20T16:14:18.889Z,4.35
2022-10-20T16:16:46.380Z,4.75
2022-10-20T16:19:14.028Z,4.43
2022-10-20T16:21:41.676Z,4.38
2022-10-20T16:24:09.464Z,4.55
2022-10-20T16:26:36.930Z,4.43
2022-10-20T16:29:04.381Z,4.53
2022-10-20T16:31:31.795Z,4.82
2022-10-20T16:34:02.523Z,4.97
2022-10-20T16:36:30.248Z,4.65
2022-10-20T16:38:58.259Z,4.63
2022-10-20T16:41:25.897Z,4.90
2022-10-20T16:43:56.456Z,4.20
2022-10-20T16:46:26.521Z,4.05
2022-10-20T16:48:57.556Z,4.32
2022-10-20T16:51:25.634Z,4.40
2022-10-20T16:53:57.243Z,5.43
2022-10-20T16:56:26.414Z,3.80
2022-10-20T16:58:53.680Z,4.47
2022-10-20T17:01:22.384Z,4.40
2022-10-20T17:03:51.346Z,4.45
2022-10-20T17:06:21.065Z,4.80
2022-10-20T17:08:49.029Z,5.40
2022-10-20T17:11:18.541Z,5.07
2022-10-20T17:13:46.245Z,5.05
2022-10-20T17:16:15.134Z,5.18
2022-10-20T17:18:43.230Z,4.70
2022-10-20T17:21:11.318Z,4.97
2022-10-20T17:23:41.820Z,5.20
2022-10-20T17:26:12.441Z,5.55
2022-10-20T17:28:40.211Z,5.40
2022-10-20T17:31:08.703Z,6.82
2022-10-20T17:33:36.230Z,5.53
2022-10-20T17:36:03.991Z,5.88
2022-10-20T17:38:32.189Z,5.85
2022-10-20T17:41:06.147Z,6.03
2022-10-20T17:43:34.009Z,6.30
2022-10-20T17:46:03.125Z,6.40
2022-10-20T17:48:31.191Z,6.28
2022-10-20T17:51:02.855Z,6.00
2022-10-20T17:53:32.696Z,6.60
2022-10-20T17:56:07.486Z,6.25
2022-10-20T17:58:35.191Z,7.03
2022-10-20T18:01:17.388Z,6.55
2022-10-20T18:03:45.751Z,5.80
2022-10-20T18:06:20.306Z,6.63
2022-10-20T18:08:48.304Z,6.28
2022-10-20T18:11:20.193Z,7.35
2022-10-20T18:13:48.013Z,6.35
2022-10-20T18:16:19.303Z,5.70
2022-10-20T18:18:47.215Z,5.88
2022-10-20T18:21:15.887Z,6.28
2022-10-20T18:23:45.926Z,5.80
2022-10-20T18:26:17.854Z,5.70
2022-10-20T18:28:48.278Z,6.30
2022-10-20T18:31:22.374Z,6.22
2022-10-20T18:33:51.320Z,5.80
2022-10-20T18:36:19.797Z,6.53
2022-10-20T18:38:48.425Z,6.47
2022-10-20T18:41:19.991Z,6.18
2022-10-20T18:43:48.263Z,5.75
2022-10-20T18:46:16.058Z,7.22
2022-10-20T18:48:43.899Z,6.35
2022-10-20T18:51:11.907Z,6.35
2022-10-20T18:56:18.697Z,7.47
2022-10-20T18:58:50.975Z,7.57
2022-10-20T19:01:19.471Z,7.72
2022-10-20T19:03:47.764Z,6.50
2022-10-20T19:06:16.492Z,6.07
2022-10-20T19:08:44.073Z,6.72
2022-10-20T19:11:13.400Z,6.93
2022-10-20T19:13:41.148Z,6.90
2022-10-20T19:16:10.060Z,6.70
2022-10-20T19:18:39.529Z,7.22
2022-10-20T19:21:07.515Z,6.97
2022-10-20T19:23:36.489Z,7.47
2022-10-20T19:26:05.256Z,7.38
2022-10-20T19:28:33.537Z,6.80
2022-10-20T19:31:01.383Z,6.68
2022-10-20T19:33:29.094Z,6.80
2022-10-20T19:35:56.620Z,7.80
2022-10-20T19:38:24.372Z,7.22
2022-10-20T19:40:51.771Z,7.82
2022-10-20T19:43:19.471Z,8.23
2022-10-20T19:45:49.163Z,8.15
2022-10-20T19:48:17.271Z,7.38
2022-10-20T19:50:44.753Z,7.20
2022-10-20T19:53:12.269Z,8.18
2022-10-20T19:55:39.773Z,7.75
2022-10-20T19:58:07.259Z,8.00
2022-10-20T20:00:35.108Z,6.95
2022-10-20T20:03:02.595Z,7.18
2022-10-20T20:05:30.316Z,7.53
2022-10-20T20:07:57.739Z,7.47
2022-10-20T20:10:25.088Z,8.15
2022-10-20T20:12:52.561Z,8.15
2022-10-20T20:15:20.287Z,8.38
2022-10-20T20:17:47.671Z,8.38
2022-10-20T20:20:15.017Z,7.70
2022-10-20T20:22:42.706Z,7.93
2022-10-20T20:25:10.312Z,7.20
2022-10-20T20:27:37.879Z,8.32
2022-10-20T20:30:05.703Z,8.27
2022-10-20T20:32:33.483Z,7.47
2022-10-20T20:35:00.839Z,8.23
2022-10-20T20:37:28.535Z,7.30
2022-10-20T20:39:55.992Z,8.07
2022-10-20T20:42:23.539Z,7.18
2022-10-20T20:44:53.162Z,6.80
2022-10-20T20:47:20.862Z,6.65
2022-10-20T20:49:48.339Z,6.97
2022-10-20T20:52:15.711Z,7.30
2022-10-20T20:54:43.087Z,6.82
2022-10-20T20:57:10.401Z,6.90
2022-10-20T20:59:38.087Z,6.25
2022-10-20T21:02:05.837Z,6.38
2022-10-20T21:04:33.366Z,6.15
2022-10-20T21:07:02.451Z,6.22
2022-10-20T21:09:30.867Z,6.35
2022-10-20T21:11:58.364Z,6.60
2022-10-20T21:14:25.833Z,6.97
2022-10-20T21:16:53.465Z,6.80
2022-10-20T21:19:21.092Z,7.10
2022-10-20T21:21:57.601Z,6.30
2022-10-20T21:24:26.454Z,6.05
2022-10-20T21:26:54.289Z,6.45
2022-10-20T21:29:21.948Z,6.72
2022-10-20T21:31:49.387Z,6.75
2022-10-20T21:34:16.988Z,6.22
2022-10-20T21:36:44.508Z,6.43
2022-10-20T21:39:13.634Z,6.28
2022-10-20T21:41:41.977Z,6.05
2022-10-20T21:44:09.711Z,6.22
2022-10-20T21:46:40.005Z,7.03
2022-10-20T21:49:08.620Z,6.65
2022-10-20T21:51:37.423Z,6.63
2022-10-20T21:54:06.411Z,7.18
2022-10-20T21:56:37.856Z,6.28
2022-10-20T21:59:05.916Z,6.30
2022-10-20T22:01:33.612Z,6.90
2022-10-20T22:04:01.172Z,7.85
2022-10-20T22:06:29.135Z,7.43
2022-10-20T22:08:58.242Z,6.97
2022-10-20T22:11:33.605Z,6.70
2022-10-20T22:14:01.497Z,6.57
2022-10-20T22:16:30.382Z,7.72
2022-10-20T22:19:02.270Z,6.53
2022-10-20T22:21:30.232Z,8.25
2022-10-20T22:23:58.140Z,6.88
2022-10-20T22:26:29.454Z,6.63
2022-10-20T22:28:57.970Z,7.13
2022-10-20T22:31:26.054Z,6.75
2022-10-20T22:33:54.174Z,6.70
2022-10-20T22:36:21.566Z,7.05
2022-10-20T22:38:49.139Z,7.90
2022-10-20T22:41:16.564Z,7.43
2022-10-20T22:43:44.080Z,6.97
2022-10-20T22:46:11.424Z,7.15
2022-10-20T22:48:38.839Z,6.80
2022-10-20T22:51:07.763Z,6.93
2022-10-20T22:53:35.717Z,6.63
2022-10-20T22:56:07.883Z,6.68
2022-10-20T22:58:35.614Z,6.90
2022-10-20T23:01:08.066Z,7.47
2022-10-20T23:03:35.736Z,7.18
2022-10-20T23:06:06.700Z,6.97
2022-10-20T23:08:38.156Z,6.93
2022-10-20T23:11:05.605Z,7.43
2022-10-20T23:13:33.371Z,7.15
2022-10-20T23:16:00.993Z,6.65
2022-10-20T23:18:28.480Z,7.15
2022-10-20T23:20:58.186Z,7.28
2022-10-20T23:23:26.516Z,7.03
2022-10-20T23:25:54.000Z,6.65
2022-10-20T23:28:21.753Z,6.50
2022-10-20T23:30:49.129Z,6.72
2022-10-20T23:33:16.791Z,7.07
2022-10-20T23:35:44.537Z,7.35
2022-10-20T23:38:13.615Z,7.72
2022-10-20T23:40:40.981Z,7.07
2022-10-20T23:43:08.650Z,7.45
2022-10-20T23:45:37.759Z,7.25
2022-10-20T23:48:05.593Z,7.45
2022-10-20T23:50:32.854Z,7.70
2022-10-20T23:53:00.323Z,8.20
2022-10-20T23:55:28.044Z,7.47
2022-10-20T23:57:55.566Z,7.65
